createdAt,value
2022-09-13T00:00:00.042Z,2.28
2022-09-13T00:02:27.549Z,1.80
2022-09-13T00:04:55.581Z,2.10
2022-09-13T00:07:23.179Z,1.95
2022-09-13T00:09:50.727Z,1.65
2022-09-13T00:12:18.657Z,2.10
2022-09-13T00:14:46.273Z,2.08
2022-09-13T00:17:13.989Z,1.67
2022-09-13T00:19:41.963Z,1.58
2022-09-13T00:22:09.487Z,1.60
2022-09-13T00:24:37.438Z,1.50
2022-09-13T00:27:04.960Z,1.55
2022-09-13T00:29:32.566Z,1.73
2022-09-13T00:32:02.951Z,1.40
2022-09-13T00:34:30.986Z,1.63
2022-09-13T00:36:58.884Z,2.35
2022-09-13T00:39:26.707Z,1.50
2022-09-13T00:41:55.065Z,1.88
2022-09-13T00:44:51.480Z,1.95
2022-09-13T00:47:41.515Z,2.15
2022-09-13T00:50:24.284Z,2.05
2022-09-13T00:53:01.506Z,1.70
2022-09-13T00:55:34.853Z,1.98
2022-09-13T00:58:09.001Z,1.50
2022-09-13T01:00:38.929Z,2.17
2022-09-13T01:03:11.178Z,2.03
2022-09-13T01:05:51.185Z,1.85
2022-09-13T01:08:23.272Z,1.70
2022-09-13T01:10:52.752Z,1.85
2022-09-13T01:13:23.150Z,1.95
2022-09-13T01:15:52.015Z,1.40
2022-09-13T01:18:19.914Z,1.75
2022-09-13T01:21:09.334Z,2.00
2022-09-13T01:23:47.632Z,1.70
2022-09-13T01:26:27.338Z,2.10
2022-09-13T01:29:05.247Z,2.28
2022-09-13T01:31:44.519Z,1.27
2022-09-13T01:34:33.926Z,1.08
2022-09-13T01:37:20.042Z,1.55
2022-09-13T01:40:17.796Z,1.23
2022-09-13T01:43:01.556Z,1.00
2022-09-13T01:45:48.635Z,1.20
2022-09-13T01:48:42.371Z,1.27
2022-09-13T01:51:44.516Z,1.15
2022-09-13T01:54:26.992Z,0.73
2022-09-13T01:57:16.325Z,1.30
2022-09-13T01:59:52.756Z,1.30
2022-09-13T02:02:31.891Z,1.08
2022-09-13T02:05:06.499Z,1.30
2022-09-13T02:08:00.686Z,1.35
2022-09-13T02:13:02.901Z,0.98
2022-09-13T02:15:37.923Z,1.10
2022-09-13T02:18:41.265Z,0.95
2022-09-13T02:21:20.462Z,1.27
2022-09-13T02:23:53.551Z,1.10
2022-09-13T02:26:24.398Z,0.90
2022-09-13T02:28:54.854Z,1.10
2022-09-13T02:31:30.075Z,1.00
2022-09-13T02:34:04.280Z,1.25
2022-09-13T02:36:40.626Z,1.30
2022-09-13T02:39:14.246Z,1.50
2022-09-13T02:44:45.412Z,1.08
2022-09-13T02:47:34.283Z,1.05
2022-09-13T02:50:25.876Z,1.83
2022-09-13T02:53:18.259Z,0.80
2022-09-13T02:56:08.659Z,1.17
2022-09-13T02:59:21.226Z,0.95
2022-09-13T03:01:55.119Z,1.50
2022-09-13T03:04:22.818Z,1.00
2022-09-13T03:06:50.644Z,0.80
2022-09-13T03:09:20.110Z,1.02
2022-09-13T03:12:35.169Z,1.00
2022-09-13T03:15:19.870Z,1.15
2022-09-13T03:18:24.845Z,1.40
2022-09-13T03:21:11.951Z,0.90
2022-09-13T03:23:45.501Z,1.20
2022-09-13T03:29:23.540Z,0.90
2022-09-13T03:32:16.980Z,0.90
2022-09-13T03:34:56.281Z,1.00
2022-09-13T03:37:43.760Z,1.88
2022-09-13T03:40:22.313Z,1.83
2022-09-13T03:43:00.254Z,0.90
2022-09-13T03:45:33.257Z,0.85
2022-09-13T03:48:03.056Z,1.20
2022-09-13T03:50:32.040Z,1.08
2022-09-13T03:53:09.001Z,1.30
2022-09-13T03:55:41.805Z,1.10
2022-09-13T03:58:14.593Z,1.63
2022-09-13T04:00:43.511Z,0.87
2022-09-13T04:03:11.914Z,1.00
2022-09-13T04:05:40.179Z,0.70
2022-09-13T04:08:08.646Z,1.00
2022-09-13T04:10:37.783Z,0.95
2022-09-13T04:13:06.192Z,1.13
2022-09-13T04:15:34.287Z,1.00
2022-09-13T04:18:01.754Z,0.90
2022-09-13T04:20:29.503Z,1.30
2022-09-13T04:22:58.032Z,1.00
2022-09-13T04:25:25.798Z,1.25
2022-09-13T04:27:58.229Z,1.50
2022-09-13T04:30:28.233Z,2.28
2022-09-13T04:32:59.738Z,2.03
2022-09-13T04:35:28.732Z,1.90
2022-09-13T04:37:58.198Z,1.38
2022-09-13T04:40:26.233Z,1.98
2022-09-13T04:42:54.291Z,2.03
2022-09-13T04:45:22.234Z,2.22
2022-09-13T04:47:54.116Z,1.60
2022-09-13T04:50:23.142Z,2.40
2022-09-13T04:52:52.175Z,2.90
2022-09-13T04:55:20.600Z,2.33
2022-09-13T04:57:48.149Z,2.92
2022-09-13T05:00:16.335Z,2.45
2022-09-13T05:02:44.592Z,1.95
2022-09-13T05:05:12.428Z,2.00
2022-09-13T05:07:40.302Z,1.75
2022-09-13T05:10:08.472Z,2.35
2022-09-13T05:12:35.970Z,2.35
2022-09-13T05:15:03.630Z,3.17
2022-09-13T05:17:32.154Z,2.53
2022-09-13T05:20:00.157Z,2.58
2022-09-13T05:22:27.681Z,3.30
2022-09-13T05:24:56.395Z,2.40
2022-09-13T05:27:23.918Z,2.78
2022-09-13T05:29:51.491Z,2.50
2022-09-13T05:32:19.383Z,2.95
2022-09-13T05:34:47.946Z,2.70
2022-09-13T05:37:15.481Z,2.80
2022-09-13T05:40:09.827Z,3.08
2022-09-13T05:42:30.993Z,3.22
2022-09-13T05:44:58.501Z,2.75
2022-09-13T05:47:26.462Z,3.10
2022-09-13T05:50:11.014Z,2.53
2022-09-13T05:52:41.237Z,2.10
2022-09-13T05:55:09.943Z,1.70
2022-09-13T05:57:37.973Z,1.80
2022-09-13T06:00:06.371Z,1.88
2022-09-13T06:02:41.437Z,2.33
2022-09-13T06:05:10.810Z,2.55
2022-09-13T06:07:42.598Z,2.42
2022-09-13T06:10:11.643Z,1.90
2022-09-13T06:12:39.658Z,2.78
2022-09-13T06:15:09.227Z,2.10
2022-09-13T06:17:37.323Z,2.63
2022-09-13T06:20:05.439Z,2.33
2022-09-13T06:22:35.246Z,2.38
2022-09-13T06:25:03.015Z,2.60
2022-09-13T06:27:31.616Z,2.78
2022-09-13T06:29:59.297Z,2.90
2022-09-13T06:32:26.914Z,3.03
2022-09-13T06:34:54.442Z,3.28
2022-09-13T06:37:22.406Z,2.72
2022-09-13T06:39:50.492Z,2.65
2022-09-13T06:42:18.661Z,3.08
2022-09-13T06:44:46.372Z,3.20
2022-09-13T06:47:14.918Z,2.50
2022-09-13T06:49:42.682Z,2.80
2022-09-13T06:52:10.625Z,3.40
2022-09-13T06:54:38.659Z,3.17
2022-09-13T06:57:06.469Z,2.95
2022-09-13T06:59:35.063Z,2.40
2022-09-13T07:02:03.121Z,3.97
2022-09-13T07:04:31.804Z,3.42
2022-09-13T07:06:59.939Z,3.05
2022-09-13T07:09:28.301Z,2.67
2022-09-13T07:11:56.727Z,3.05
2022-09-13T07:14:26.186Z,3.05
2022-09-13T07:16:54.428Z,2.47
2022-09-13T07:19:24.365Z,2.42
2022-09-13T07:21:52.487Z,2.35
2022-09-13T07:24:21.479Z,1.83
2022-09-13T07:26:49.239Z,1.58
2022-09-13T07:29:19.857Z,1.98
2022-09-13T07:31:49.665Z,1.80
2022-09-13T07:34:23.076Z,2.20
2022-09-13T07:36:51.033Z,1.80
2022-09-13T07:39:22.319Z,1.35
2022-09-13T07:41:51.901Z,1.38
2022-09-13T07:44:20.036Z,1.67
2022-09-13T07:46:48.100Z,1.80
2022-09-13T07:49:19.089Z,1.92
2022-09-13T07:51:47.089Z,1.80
2022-09-13T07:54:17.925Z,1.60
2022-09-13T07:56:46.467Z,1.48
2022-09-13T07:59:16.343Z,2.50
2022-09-13T08:01:47.457Z,1.77
2022-09-13T08:04:18.918Z,1.90
2022-09-13T08:06:47.524Z,1.70
2022-09-13T08:09:15.951Z,2.08
2022-09-13T08:11:49.159Z,1.70
2022-09-13T08:14:18.951Z,2.63
2022-09-13T08:16:47.002Z,1.83
2022-09-13T08:19:17.319Z,1.70
2022-09-13T08:21:46.083Z,2.10
2022-09-13T08:24:17.182Z,2.58
2022-09-13T08:26:45.584Z,2.80
2022-09-13T08:29:14.450Z,2.63
2022-09-13T08:31:42.448Z,3.00
2022-09-13T08:34:12.962Z,3.85
2022-09-13T08:36:41.272Z,3.03
2022-09-13T08:39:10.260Z,2.70
2022-09-13T08:41:42.230Z,3.10
2022-09-13T08:44:31.177Z,3.20
2022-09-13T08:47:17.556Z,3.78
2022-09-13T08:49:49.265Z,3.95
2022-09-13T08:52:28.720Z,3.00
2022-09-13T08:54:58.727Z,3.42
2022-09-13T08:57:47.553Z,2.70
2022-09-13T09:00:32.285Z,2.58
2022-09-13T09:03:18.623Z,2.30
2022-09-13T09:05:49.701Z,2.17
2022-09-13T09:08:43.313Z,2.13
2022-09-13T09:11:42.755Z,2.17
2022-09-13T09:14:58.304Z,1.65
2022-09-13T09:18:02.295Z,2.53
2022-09-13T09:20:46.699Z,2.10
2022-09-13T09:23:27.630Z,1.80
2022-09-13T09:26:16.226Z,1.38
2022-09-13T09:29:05.304Z,1.65
2022-09-13T09:31:51.027Z,1.80
2022-09-13T09:34:42.854Z,2.53
2022-09-13T09:37:21.317Z,2.17
2022-09-13T09:39:51.076Z,1.83
2022-09-13T09:42:29.095Z,2.47
2022-09-13T09:45:03.757Z,1.80
2022-09-13T09:47:46.016Z,1.55
2022-09-13T09:50:18.781Z,1.73
2022-09-13T09:52:56.756Z,2.65
2022-09-13T09:55:29.943Z,1.83
2022-09-13T09:58:06.628Z,3.20
2022-09-13T10:00:58.015Z,2.63
2022-09-13T10:03:29.462Z,1.88
2022-09-13T10:06:14.144Z,1.85
2022-09-13T10:08:44.068Z,2.20
2022-09-13T10:11:13.014Z,2.72
2022-09-13T10:13:59.182Z,2.25
2022-09-13T10:16:29.796Z,3.33
2022-09-13T10:19:24.854Z,2.25
2022-09-13T10:22:06.002Z,2.33
2022-09-13T10:24:33.802Z,2.50
2022-09-13T10:27:04.223Z,3.17
2022-09-13T10:29:32.221Z,2.55
2022-09-13T10:32:07.789Z,2.85
2022-09-13T10:34:37.218Z,2.33
2022-09-13T10:37:14.905Z,2.83
2022-09-13T10:40:34.167Z,2.78
2022-09-13T10:43:05.003Z,2.97
2022-09-13T10:45:33.267Z,4.88
2022-09-13T10:48:07.175Z,2.90
2022-09-13T10:50:36.297Z,3.35
2022-09-13T10:53:05.722Z,3.13
2022-09-13T10:55:41.029Z,3.78
2022-09-13T10:58:08.640Z,2.97
2022-09-13T11:00:54.495Z,2.50
2022-09-13T11:03:59.783Z,3.05
2022-09-13T11:06:42.197Z,3.33
2022-09-13T11:09:28.019Z,3.58
2022-09-13T11:12:27.426Z,3.13
2022-09-13T11:15:15.941Z,3.22
2022-09-13T11:17:52.526Z,3.65
2022-09-13T11:20:38.650Z,4.50
2022-09-13T11:23:25.578Z,4.05
2022-09-13T11:26:17.671Z,2.20
2022-09-13T11:28:58.911Z,3.70
2022-09-13T11:31:41.849Z,3.50
2022-09-13T11:34:32.665Z,3.08
2022-09-13T11:37:09.801Z,4.28
2022-09-13T11:39:42.883Z,3.80
2022-09-13T11:42:16.040Z,4.13
2022-09-13T11:45:08.377Z,2.95
2022-09-13T11:47:59.538Z,3.85
2022-09-13T11:50:44.468Z,3.80
2022-09-13T11:53:18.046Z,3.70
2022-09-13T11:55:54.424Z,3.05
2022-09-13T11:58:46.305Z,2.60
2022-09-13T12:01:21.975Z,2.45
2022-09-13T12:04:33.087Z,2.88
2022-09-13T12:07:06.298Z,2.60
2022-09-13T12:12:34.453Z,3.67
2022-09-13T12:15:15.736Z,3.63
2022-09-13T12:17:53.141Z,3.78
2022-09-13T12:20:35.542Z,3.30
2022-09-13T12:23:08.672Z,3.83
2022-09-13T12:26:05.224Z,2.40
2022-09-13T12:28:41.760Z,3.13
2022-09-13T12:31:19.762Z,2.30
2022-09-13T12:33:49.175Z,2.38
2022-09-13T12:36:23.096Z,4.18
2022-09-13T12:39:06.660Z,2.83
2022-09-13T12:41:53.426Z,2.92
2022-09-13T12:44:39.006Z,2.88
2022-09-13T12:47:41.146Z,2.15
2022-09-13T12:50:44.153Z,3.13
2022-09-13T12:53:36.890Z,2.97
2022-09-13T12:56:31.119Z,3.67
2022-09-13T12:59:25.923Z,3.33
2022-09-13T13:01:54.495Z,3.45
2022-09-13T13:04:35.904Z,2.60
2022-09-13T13:07:08.363Z,2.25
2022-09-13T13:09:43.786Z,3.08
2022-09-13T13:12:29.789Z,2.67
2022-09-13T13:14:58.526Z,2.90
2022-09-13T13:17:53.629Z,3.17
2022-09-13T13:20:47.610Z,1.77
2022-09-13T13:23:36.552Z,1.90
2022-09-13T13:26:32.990Z,2.80
2022-09-13T13:29:11.562Z,2.65
2022-09-13T13:31:42.363Z,2.35
2022-09-13T13:34:16.550Z,1.90
2022-09-13T13:36:49.077Z,2.70
2022-09-13T13:39:25.997Z,2.13
2022-09-13T13:41:59.115Z,2.00
2022-09-13T13:44:27.125Z,1.80
2022-09-13T13:47:15.364Z,2.55
2022-09-13T13:49:52.669Z,3.45
2022-09-13T13:52:22.723Z,2.67
2022-09-13T13:55:04.824Z,2.05
2022-09-13T13:57:50.271Z,2.97
2022-09-13T14:00:18.142Z,2.20
2022-09-13T14:03:16.295Z,2.10
2022-09-13T14:06:01.054Z,2.00
2022-09-13T14:09:02.658Z,2.45
2022-09-13T14:12:10.839Z,2.00
2022-09-13T14:14:47.715Z,2.83
2022-09-13T14:17:32.091Z,2.22
2022-09-13T14:20:13.327Z,2.20
2022-09-13T14:22:40.886Z,2.25
2022-09-13T14:25:24.582Z,2.08
2022-09-13T14:27:59.412Z,2.20
2022-09-13T14:30:35.804Z,1.83
2022-09-13T14:33:08.788Z,2.92
2022-09-13T14:35:38.162Z,2.65
2022-09-13T14:38:31.041Z,2.75
2022-09-13T14:41:01.877Z,2.65
2022-09-13T14:43:31.050Z,2.45
2022-09-13T14:46:17.246Z,2.40
2022-09-13T14:49:08.650Z,1.55
2022-09-13T14:51:42.017Z,1.70
2022-09-13T14:54:40.770Z,1.20
2022-09-13T14:57:21.206Z,1.70
2022-09-13T14:59:52.766Z,2.00
2022-09-13T15:02:30.023Z,1.20
2022-09-13T15:04:59.991Z,1.98
2022-09-13T15:07:32.235Z,1.50
2022-09-13T15:12:54.364Z,1.70
2022-09-13T15:15:21.839Z,1.98
2022-09-13T15:17:52.426Z,1.52
2022-09-13T15:20:22.271Z,1.98
2022-09-13T15:22:54.154Z,1.70
2022-09-13T15:25:26.259Z,1.55
2022-09-13T15:27:58.170Z,1.33
2022-09-13T15:30:32.379Z,1.40
2022-09-13T15:33:12.768Z,1.70
2022-09-13T15:35:43.259Z,2.47
2022-09-13T15:38:29.055Z,2.05
2022-09-13T15:41:10.798Z,2.05
2022-09-13T15:43:38.603Z,1.70
2022-09-13T15:46:06.874Z,1.98
2022-09-13T15:48:36.255Z,1.58
2022-09-13T15:51:07.427Z,1.88
2022-09-13T15:53:37.470Z,1.65
2022-09-13T15:56:07.215Z,1.85
2022-09-13T15:58:36.007Z,2.20
2022-09-13T16:01:05.147Z,1.88
2022-09-13T16:03:32.852Z,2.33
2022-09-13T16:06:00.577Z,1.98
2022-09-13T16:08:28.503Z,1.77
2022-09-13T16:10:56.534Z,1.75
2022-09-13T16:13:24.238Z,2.22
2022-09-13T16:15:55.823Z,2.75
2022-09-13T16:18:25.647Z,2.90
2022-09-13T16:20:53.168Z,2.45
2022-09-13T16:23:21.629Z,2.83
2022-09-13T16:25:55.709Z,2.53
2022-09-13T16:28:23.356Z,2.75
2022-09-13T16:30:51.568Z,2.95
2022-09-13T16:33:19.787Z,3.58
2022-09-13T16:35:47.951Z,3.17
2022-09-13T16:38:15.963Z,5.25
2022-09-13T16:40:45.243Z,3.97
2022-09-13T16:43:13.660Z,4.30
2022-09-13T16:45:43.021Z,2.85
2022-09-13T16:48:11.183Z,3.80
2022-09-13T16:50:41.793Z,2.88
2022-09-13T16:53:10.055Z,2.92
2022-09-13T16:55:40.104Z,2.50
2022-09-13T16:58:07.996Z,2.70
2022-09-13T17:00:35.823Z,2.47
2022-09-13T17:03:04.172Z,2.70
2022-09-13T17:05:32.254Z,2.85
2022-09-13T17:08:00.130Z,3.65
2022-09-13T17:10:28.882Z,2.63
2022-09-13T17:12:56.504Z,3.10
2022-09-13T17:15:24.153Z,3.38
2022-09-13T17:17:52.638Z,2.92
2022-09-13T17:20:20.873Z,3.47
2022-09-13T17:22:50.313Z,3.38
2022-09-13T17:25:20.835Z,4.95
2022-09-13T17:27:48.456Z,3.20
2022-09-13T17:30:15.950Z,4.75
2022-09-13T17:32:43.455Z,3.58
2022-09-13T17:35:12.086Z,4.03
2022-09-13T17:37:39.662Z,4.35
2022-09-13T17:40:08.086Z,3.95
2022-09-13T17:42:35.625Z,3.60
2022-09-13T17:45:03.303Z,3.67
2022-09-13T17:47:31.090Z,3.97
2022-09-13T17:49:59.263Z,4.68
2022-09-13T17:52:29.650Z,3.80
2022-09-13T17:57:28.577Z,4.93
2022-09-13T17:59:56.245Z,5.20
2022-09-13T18:02:23.888Z,6.43
2022-09-13T18:04:52.338Z,6.82
2022-09-13T18:07:20.737Z,5.53
2022-09-13T18:09:48.978Z,5.28
2022-09-13T18:12:17.091Z,6.25
2022-09-13T18:14:44.658Z,4.18
2022-09-13T18:17:13.388Z,4.65
2022-09-13T18:19:46.348Z,3.45
2022-09-13T18:22:15.183Z,3.58
2022-09-13T18:24:42.728Z,3.80
2022-09-13T18:27:10.728Z,3.63
2022-09-13T18:29:38.227Z,3.53
2022-09-13T18:32:06.395Z,3.78
2022-09-13T18:34:33.876Z,4.05
2022-09-13T18:37:01.919Z,3.80
2022-09-13T18:39:30.588Z,4.82
2022-09-13T18:41:58.077Z,3.97
2022-09-13T18:44:25.742Z,4.00
2022-09-13T18:46:54.209Z,3.38
2022-09-13T18:49:22.530Z,3.70
2022-09-13T18:51:50.085Z,2.90
2022-09-13T18:54:18.753Z,3.88
2022-09-13T18:56:47.750Z,3.55
2022-09-13T18:59:15.987Z,3.28
2022-09-13T19:01:45.310Z,3.25
2022-09-13T19:04:14.534Z,3.63
2022-09-13T19:06:48.352Z,3.63
2022-09-13T19:09:17.568Z,3.63
2022-09-13T19:11:48.944Z,4.00
2022-09-13T19:14:25.575Z,3.90
2022-09-13T19:16:56.525Z,4.28
2022-09-13T19:19:24.756Z,3.47
2022-09-13T19:21:52.306Z,3.78
2022-09-13T19:24:21.186Z,4.10
2022-09-13T19:26:51.777Z,4.03
2022-09-13T19:29:22.731Z,3.83
2022-09-13T19:31:52.581Z,3.50
2022-09-13T19:34:22.527Z,4.10
2022-09-13T19:36:57.323Z,3.60
2022-09-13T19:39:29.581Z,4.35
2022-09-13T19:42:00.540Z,4.18
2022-09-13T19:44:28.826Z,3.30
2022-09-13T19:47:36.313Z,3.50
2022-09-13T19:49:45.302Z,4.53
2022-09-13T19:52:13.590Z,3.92
2022-09-13T19:54:41.568Z,5.03
2022-09-13T19:57:09.984Z,4.82
2022-09-13T19:59:37.496Z,5.20
2022-09-13T20:02:05.392Z,4.55
2022-09-13T20:04:33.068Z,4.32
2022-09-13T20:07:01.147Z,4.03
2022-09-13T20:09:28.763Z,4.80
2022-09-13T20:12:00.436Z,3.97
2022-09-13T20:14:28.682Z,4.38
2022-09-13T20:16:58.014Z,4.30
2022-09-13T20:19:44.798Z,4.68
2022-09-13T20:22:13.226Z,4.32
2022-09-13T20:24:40.828Z,4.88
2022-09-13T20:38:09.005Z,6.97
2022-09-13T20:40:36.511Z,8.10
2022-09-13T20:44:01.782Z,6.40
2022-09-13T20:47:28.129Z,7.68
2022-09-13T20:49:56.252Z,6.25
2022-09-13T20:52:44.604Z,6.57
2022-09-13T20:55:12.928Z,6.85
2022-09-13T20:58:05.904Z,7.20
2022-09-13T21:00:38.399Z,6.80
2022-09-13T21:03:44.290Z,6.22
2022-09-13T21:06:12.038Z,6.35
2022-09-13T21:08:58.950Z,6.00
2022-09-13T21:11:33.099Z,6.88
2022-09-13T21:14:09.576Z,6.50
2022-09-13T21:16:41.340Z,6.50
2022-09-13T21:19:34.313Z,6.95
2022-09-13T21:22:03.386Z,7.22
2022-09-13T21:24:31.672Z,6.53
2022-09-13T21:26:59.572Z,6.53
2022-09-13T21:29:27.100Z,6.00
2022-09-13T21:31:57.515Z,5.93
2022-09-13T21:34:27.510Z,5.50
2022-09-13T21:36:56.912Z,5.30
2022-09-13T21:39:24.430Z,5.72
2022-09-13T21:41:52.062Z,5.18
2022-09-13T21:44:19.506Z,4.97
2022-09-13T21:46:47.350Z,4.30
2022-09-13T21:49:31.389Z,4.57
2022-09-13T21:51:59.590Z,4.30
2022-09-13T21:54:27.123Z,4.40
2022-09-13T21:56:54.921Z,4.47
2022-09-13T21:59:23.933Z,4.65
2022-09-13T22:02:42.078Z,4.55
2022-09-13T22:05:34.505Z,4.75
2022-09-13T22:08:02.275Z,4.47
2022-09-13T22:10:29.825Z,4.47
2022-09-13T22:12:57.740Z,4.97
2022-09-13T22:15:25.257Z,4.88
2022-09-13T22:21:41.415Z,6.05
2022-09-13T22:24:14.200Z,4.53
2022-09-13T22:26:41.791Z,4.85
2022-09-13T22:29:40.664Z,5.47
2022-09-13T22:32:09.021Z,5.00
2022-09-13T22:34:36.663Z,5.07
2022-09-13T22:37:04.551Z,4.28
2022-09-13T22:39:33.000Z,5.10
2022-09-13T22:42:01.399Z,5.43
2022-09-13T22:44:29.370Z,4.45
2022-09-13T22:47:21.807Z,4.45
2022-09-13T22:50:08.025Z,4.47
2022-09-13T22:53:27.588Z,4.38
2022-09-13T22:55:55.072Z,4.57
2022-09-13T23:02:21.154Z,5.53
2022-09-13T23:04:49.278Z,5.00
2022-09-13T23:07:17.050Z,4.13
2022-09-13T23:13:08.362Z,5.57
2022-09-13T23:16:10.598Z,4.85
2022-09-13T23:19:29.488Z,4.53
2022-09-13T23:21:57.108Z,4.70
2022-09-13T23:24:25.150Z,4.57
2022-09-13T23:26:55.477Z,3.95
2022-09-13T23:29:23.369Z,4.95
2022-09-13T23:31:51.500Z,4.07
2022-09-13T23:34:20.582Z,3.72
2022-09-13T23:36:48.418Z,4.63
2022-09-13T23:39:27.109Z,4.40
2022-09-13T23:41:55.374Z,4.93
2022-09-13T23:44:33.367Z,4.68
2022-09-13T23:47:09.854Z,4.05
2022-09-13T23:49:37.871Z,4.35
2022-09-13T23:52:05.439Z,5.50
2022-09-13T23:54:32.921Z,4.40
2022-09-13T23:57:00.613Z,4.72
